createdAt,value
2018-07-16T00:01:22.991Z,48.10
2018-07-16T00:04:03.625Z,44.47
2018-07-16T00:06:44.663Z,45.63
2018-07-16T00:09:25.933Z,34.40
2018-07-16T00:12:07.069Z,39.53
2018-07-16T00:14:48.447Z,41.30
2018-07-16T00:17:29.821Z,34.37
2018-07-16T00:20:11.175Z,49.57
2018-07-16T00:22:51.890Z,37.77
2018-07-16T00:25:33.251Z,44.80
2018-07-16T00:28:14.739Z,33.73
2018-07-16T00:30:55.774Z,34.53
2018-07-16T00:33:37.167Z,47.73
2018-07-16T00:36:17.743Z,44.90
2018-07-16T00:38:58.478Z,46.37
2018-07-16T00:41:39.538Z,38.73
2018-07-16T00:44:20.320Z,34.53
2018-07-16T00:47:01.628Z,32.33
2018-07-16T00:49:42.640Z,39.97
2018-07-16T00:52:23.779Z,43.13
2018-07-16T00:55:04.510Z,45.53
2018-07-16T00:57:45.867Z,37.43
2018-07-16T01:00:26.851Z,43.27
2018-07-16T01:03:08.059Z,36.80
2018-07-16T01:05:49.152Z,54.33
2018-07-16T01:08:30.240Z,40.10
2018-07-16T01:11:11.196Z,51.67
2018-07-16T01:13:52.373Z,43.27
2018-07-16T01:16:33.267Z,43.83
2018-07-16T01:19:14.681Z,49.77
2018-07-16T01:21:55.917Z,47.67
2018-07-16T01:24:37.261Z,52.63
2018-07-16T01:27:18.047Z,55.20
2018-07-16T01:29:59.255Z,63.80
2018-07-16T01:32:40.289Z,58.60
2018-07-16T01:35:21.723Z,56.80
2018-07-16T01:38:03.328Z,53.40
2018-07-16T01:40:43.912Z,52.70
2018-07-16T01:43:25.064Z,54.50
2018-07-16T01:46:06.019Z,60.57
2018-07-16T01:48:46.761Z,55.00
2018-07-16T01:51:27.710Z,60.40
2018-07-16T01:54:08.811Z,70.73
2018-07-16T01:56:50.024Z,51.87
2018-07-16T01:59:30.985Z,52.90
2018-07-16T02:02:12.043Z,56.03
2018-07-16T02:04:53.317Z,58.30
2018-07-16T02:07:34.330Z,46.60
2018-07-16T02:10:15.620Z,43.13
2018-07-16T02:12:56.532Z,47.03
2018-07-16T02:15:37.820Z,39.27
2018-07-16T02:18:18.576Z,39.93
2018-07-16T02:20:59.219Z,33.90
2018-07-16T02:23:40.588Z,33.80
2018-07-16T02:26:21.967Z,37.03
2018-07-16T02:29:02.780Z,40.83
2018-07-16T02:31:44.327Z,33.63
2018-07-16T02:34:25.180Z,34.07
2018-07-16T02:37:06.017Z,43.57
2018-07-16T02:39:47.301Z,42.93
2018-07-16T02:42:27.872Z,49.63
2018-07-16T02:45:09.090Z,47.80
2018-07-16T02:47:50.415Z,47.93
2018-07-16T02:50:31.908Z,35.77
2018-07-16T02:53:13.148Z,44.50
2018-07-16T02:55:53.909Z,47.83
2018-07-16T02:58:34.401Z,49.20
2018-07-16T03:01:15.555Z,46.33
2018-07-16T03:03:56.642Z,41.77
2018-07-16T03:06:37.425Z,47.53
2018-07-16T03:09:18.328Z,48.90
2018-07-16T03:11:59.238Z,53.27
2018-07-16T03:14:40.263Z,42.03
2018-07-16T03:17:21.324Z,54.20
2018-07-16T03:20:02.626Z,38.77
2018-07-16T03:22:43.486Z,36.20
2018-07-16T03:25:24.664Z,57.60
2018-07-16T03:28:05.548Z,39.77
2018-07-16T03:30:46.696Z,32.63
2018-07-16T03:33:28.039Z,38.03
2018-07-16T03:36:08.637Z,42.47
2018-07-16T03:38:49.828Z,42.97
2018-07-16T03:41:30.518Z,47.70
2018-07-16T03:44:11.298Z,39.47
2018-07-16T03:46:52.116Z,37.50
2018-07-16T03:49:33.259Z,30.17
2018-07-16T03:52:14.193Z,36.77
2018-07-16T03:54:55.464Z,27.17
2018-07-16T03:57:36.401Z,27.50
2018-07-16T04:00:17.751Z,23.33
2018-07-16T04:02:58.300Z,24.00
2018-07-16T04:05:39.544Z,31.00
2018-07-16T04:08:20.315Z,36.83
2018-07-16T04:11:01.325Z,41.83
2018-07-16T04:13:42.308Z,43.97
2018-07-16T04:16:23.260Z,49.00
2018-07-16T04:19:04.084Z,53.13
2018-07-16T04:21:45.530Z,51.20
2018-07-16T04:24:26.347Z,47.87
2018-07-16T04:27:07.623Z,61.43
2018-07-16T04:29:49.166Z,39.30
2018-07-16T04:32:30.267Z,48.90
2018-07-16T04:35:11.070Z,33.83
2018-07-16T04:37:51.957Z,30.10
2018-07-16T04:40:32.744Z,48.63
2018-07-16T04:43:14.091Z,39.57
2018-07-16T04:45:55.247Z,31.87
2018-07-16T04:48:35.903Z,42.53
2018-07-16T04:51:17.016Z,45.70
2018-07-16T04:53:58.095Z,46.43
2018-07-16T04:56:39.346Z,36.50
2018-07-16T04:59:20.883Z,54.73
2018-07-16T05:02:01.543Z,43.13
2018-07-16T05:04:42.703Z,35.70
2018-07-16T05:07:23.956Z,42.47
2018-07-16T05:10:05.539Z,40.03
2018-07-16T05:12:46.429Z,35.43
2018-07-16T05:15:27.643Z,42.63
2018-07-16T05:18:08.724Z,52.37
2018-07-16T05:20:49.455Z,49.53
2018-07-16T05:23:30.096Z,35.67
2018-07-16T05:26:11.310Z,60.53
2018-07-16T05:28:52.016Z,71.37
2018-07-16T05:31:33.493Z,56.17
2018-07-16T05:34:14.489Z,41.33
2018-07-16T05:37:02.096Z,36.70
2018-07-16T05:39:42.767Z,56.43
2018-07-16T05:42:24.205Z,54.43
2018-07-16T05:45:05.655Z,55.33
2018-07-16T05:47:46.830Z,48.20
2018-07-16T05:50:28.061Z,63.47
2018-07-16T05:53:08.969Z,41.87
2018-07-16T05:55:50.224Z,46.23
2018-07-16T05:58:31.113Z,55.20
2018-07-16T06:01:12.239Z,51.50
2018-07-16T06:03:52.875Z,44.47
2018-07-16T06:06:33.783Z,47.57
2018-07-16T06:09:14.929Z,42.00
2018-07-16T06:11:56.170Z,36.40
2018-07-16T06:14:37.601Z,38.20
2018-07-16T06:17:18.589Z,36.90
2018-07-16T06:19:59.100Z,48.00
2018-07-16T06:22:41.356Z,54.67
2018-07-16T06:25:22.051Z,40.43
2018-07-16T06:28:02.875Z,32.83
2018-07-16T06:30:44.213Z,45.30
2018-07-16T06:33:24.908Z,44.00
2018-07-16T06:36:06.244Z,81.40
2018-07-16T06:38:47.080Z,69.93
2018-07-16T06:41:28.098Z,49.67
2018-07-16T06:44:08.633Z,72.93
2018-07-16T06:46:49.831Z,75.27
2018-07-16T06:49:31.035Z,61.37
2018-07-16T06:52:12.008Z,102.67
2018-07-16T06:54:53.228Z,83.80
2018-07-16T06:57:34.307Z,79.37
2018-07-16T07:00:14.883Z,69.97
2018-07-16T12:23:14.143Z,20.43
2018-07-16T12:25:55.266Z,14.23
2018-07-16T12:28:35.900Z,20.83
2018-07-16T12:31:16.696Z,16.63
2018-07-16T12:33:57.485Z,24.23
2018-07-16T12:36:38.353Z,12.10
2018-07-16T12:39:19.092Z,13.93
2018-07-16T12:41:59.833Z,12.93
2018-07-16T12:44:40.374Z,8.37
2018-07-16T12:47:21.288Z,9.50
2018-07-16T12:50:01.945Z,12.13
2018-07-16T12:52:42.636Z,8.10
2018-07-16T12:55:23.259Z,12.43
2018-07-16T12:58:04.567Z,7.50
2018-07-16T13:00:46.050Z,7.00
2018-07-16T13:03:27.069Z,7.23
2018-07-16T13:06:07.936Z,7.90
2018-07-16T13:08:48.677Z,9.53
2018-07-16T13:11:29.637Z,7.97
2018-07-16T13:14:10.541Z,7.97
2018-07-16T13:16:51.179Z,7.90
2018-07-16T13:19:31.961Z,9.23
2018-07-16T13:22:12.830Z,8.47
2018-07-16T13:24:53.761Z,7.00
2018-07-16T13:27:34.647Z,6.63
2018-07-16T13:30:15.569Z,10.00
2018-07-16T13:32:56.264Z,8.23
2018-07-16T13:35:37.057Z,6.77
2018-07-16T13:38:17.585Z,7.67
2018-07-16T13:40:58.189Z,11.40
2018-07-16T13:43:38.765Z,9.63
2018-07-16T13:46:19.668Z,13.73
2018-07-16T13:49:00.293Z,8.43
2018-07-16T13:51:41.308Z,10.43
2018-07-16T13:54:22.785Z,11.93
2018-07-16T13:57:03.584Z,6.13
2018-07-16T13:59:44.124Z,11.60
2018-07-16T14:02:24.893Z,7.63
2018-07-16T14:05:05.539Z,6.40
2018-07-16T14:07:46.392Z,6.70
2018-07-16T14:10:27.150Z,6.03
2018-07-16T14:13:08.209Z,13.13
2018-07-16T14:15:48.720Z,7.67
2018-07-16T14:18:29.919Z,11.40
2018-07-16T14:21:11.293Z,8.60
2018-07-16T14:23:52.185Z,9.90
2018-07-16T14:26:32.989Z,9.73
2018-07-16T14:29:13.844Z,10.23
2018-07-16T14:31:54.577Z,9.50
2018-07-16T14:34:35.204Z,6.43
2018-07-16T14:37:15.796Z,8.50
2018-07-16T14:39:56.465Z,13.50
2018-07-16T14:42:37.264Z,8.17
2018-07-16T14:45:18.811Z,11.13
2018-07-16T14:47:59.625Z,7.90
2018-07-16T14:50:40.641Z,11.40
2018-07-16T14:53:21.224Z,8.27
2018-07-16T14:56:01.852Z,9.47
2018-07-16T14:58:42.449Z,10.83
2018-07-16T15:01:23.154Z,9.13
2018-07-16T15:04:04.040Z,10.80
2018-07-16T15:06:45.437Z,17.23
2018-07-16T15:09:26.154Z,10.47
2018-07-16T15:12:07.251Z,16.83
2018-07-16T15:14:48.117Z,11.73
2018-07-16T15:17:28.878Z,9.93
2018-07-16T15:20:10.100Z,15.60
2018-07-16T15:22:50.761Z,15.60
2018-07-16T15:25:31.886Z,16.70
2018-07-16T15:28:12.492Z,13.40
2018-07-16T15:30:53.479Z,15.17
2018-07-16T15:33:34.460Z,17.53
2018-07-16T15:36:15.284Z,15.97
2018-07-16T15:38:56.010Z,12.63
2018-07-16T15:41:37.359Z,14.80
2018-07-16T15:44:18.785Z,14.97
2018-07-16T15:46:59.922Z,9.17
2018-07-16T15:49:41.272Z,15.43
2018-07-16T15:52:22.527Z,21.03
2018-07-16T15:55:03.725Z,10.67
2018-07-16T15:57:44.393Z,10.20
2018-07-16T16:00:25.196Z,14.10
2018-07-16T16:03:06.257Z,12.13
2018-07-16T16:05:47.288Z,14.57
2018-07-16T16:08:28.311Z,15.50
2018-07-16T16:11:09.852Z,13.03
2018-07-16T16:13:51.247Z,8.80
2018-07-16T16:16:32.507Z,10.27
2018-07-16T16:19:13.378Z,14.77
2018-07-16T16:21:54.702Z,18.50
2018-07-16T16:24:35.743Z,22.80
2018-07-16T16:27:16.778Z,18.00
2018-07-16T16:29:58.288Z,21.07
2018-07-16T16:32:39.231Z,11.10
2018-07-16T16:35:20.112Z,9.43
2018-07-16T16:38:01.798Z,11.40
2018-07-16T16:40:42.379Z,20.10
2018-07-16T16:43:23.553Z,13.10
2018-07-16T16:46:04.677Z,19.03
2018-07-16T16:48:45.576Z,25.80
2018-07-16T16:51:27.118Z,10.03
2018-07-16T16:54:07.746Z,22.00
2018-07-16T16:56:48.696Z,16.30
2018-07-16T16:59:29.605Z,26.37
2018-07-16T17:02:10.763Z,13.90
2018-07-16T17:04:51.972Z,19.60
2018-07-16T17:07:33.038Z,22.37
2018-07-16T17:10:14.404Z,18.73
2018-07-16T17:12:55.074Z,17.10
2018-07-16T17:15:36.028Z,15.27
2018-07-16T17:18:16.964Z,14.30
2018-07-16T17:20:58.233Z,19.17
2018-07-16T17:23:39.823Z,17.03
2018-07-16T17:26:20.688Z,11.43
2018-07-16T17:29:01.771Z,35.53
2018-07-16T17:31:43.008Z,17.47
2018-07-16T17:34:23.951Z,16.27
2018-07-16T17:37:05.273Z,20.57
2018-07-16T17:39:46.721Z,16.90
2018-07-16T17:42:27.552Z,44.10
2018-07-16T17:45:08.953Z,16.00
2018-07-16T17:47:50.242Z,11.03
2018-07-16T17:50:30.857Z,32.17
2018-07-16T17:53:11.733Z,26.53
2018-07-16T17:55:52.972Z,21.20
2018-07-16T17:58:34.073Z,31.70
2018-07-16T18:01:14.903Z,23.70
2018-07-16T18:03:55.978Z,21.80
2018-07-16T18:06:36.887Z,27.90
2018-07-16T18:09:17.359Z,37.50
2018-07-16T18:11:58.428Z,52.27
2018-07-16T18:14:39.605Z,24.57
2018-07-16T18:17:20.760Z,20.73
2018-07-16T18:20:01.996Z,22.03
2018-07-16T18:22:43.096Z,27.60
2018-07-16T18:25:24.399Z,13.03
2018-07-16T18:28:05.677Z,14.80
2018-07-16T18:30:47.151Z,16.03
2018-07-16T18:33:28.278Z,19.10
2018-07-16T18:36:09.537Z,20.10
2018-07-16T18:38:50.675Z,24.37
2018-07-16T18:41:31.639Z,20.43
2018-07-16T18:44:12.960Z,27.10
2018-07-16T18:46:54.108Z,23.03
2018-07-16T18:49:34.975Z,45.83
2018-07-16T18:52:15.991Z,38.57
2018-07-16T18:54:57.227Z,39.20
2018-07-16T18:57:38.200Z,21.87
2018-07-16T19:00:18.887Z,18.67
2018-07-16T19:03:00.030Z,29.23
2018-07-16T19:05:40.822Z,28.53
2018-07-16T19:08:21.818Z,25.17
2018-07-16T19:11:02.958Z,17.27
2018-07-16T19:13:43.952Z,20.77
2018-07-16T19:16:25.343Z,22.83
2018-07-16T19:19:06.692Z,28.23
2018-07-16T19:21:47.655Z,31.67
2018-07-16T19:24:28.926Z,22.90
2018-07-16T19:27:10.223Z,32.80
2018-07-16T19:29:51.243Z,16.20
2018-07-16T19:32:32.693Z,18.47
2018-07-16T19:35:13.624Z,13.47
2018-07-16T19:37:55.168Z,18.80
2018-07-16T19:40:36.212Z,17.63
2018-07-16T19:43:16.987Z,33.00
2018-07-16T19:45:58.067Z,16.67
2018-07-16T19:48:39.377Z,18.27
2018-07-16T19:51:20.397Z,13.90
2018-07-16T19:54:01.289Z,17.00
2018-07-16T19:56:42.716Z,15.10
2018-07-16T19:59:23.821Z,19.37
2018-07-16T20:02:04.612Z,14.83
2018-07-16T20:04:45.568Z,17.60
2018-07-16T20:07:26.533Z,11.73
2018-07-16T20:10:07.724Z,16.10
2018-07-16T20:12:48.371Z,14.90
2018-07-16T20:15:29.394Z,23.30
2018-07-16T20:18:10.490Z,13.07
2018-07-16T20:20:53.229Z,25.07
2018-07-16T20:23:34.516Z,11.80
2018-07-16T20:26:15.659Z,16.03
2018-07-16T20:28:57.165Z,18.60
2018-07-16T20:31:38.277Z,14.63
2018-07-16T20:34:18.813Z,24.03
2018-07-16T20:36:59.731Z,18.03
2018-07-16T20:39:40.698Z,17.10
2018-07-16T20:42:21.623Z,11.40
2018-07-16T20:45:02.848Z,13.30
2018-07-16T20:47:43.902Z,18.20
2018-07-16T20:50:25.107Z,26.73
2018-07-16T20:53:05.733Z,43.07
2018-07-16T20:55:46.666Z,26.30
2018-07-16T20:58:27.284Z,17.27
2018-07-16T21:01:08.986Z,28.80
2018-07-16T21:03:50.396Z,29.03
2018-07-16T21:06:31.255Z,30.50
2018-07-16T21:09:12.617Z,25.20
2018-07-16T21:11:53.873Z,15.10
2018-07-16T21:14:35.259Z,17.40
2018-07-16T21:17:16.385Z,8.70
2018-07-16T21:19:57.332Z,17.93
2018-07-16T21:22:38.327Z,27.13
2018-07-16T21:25:19.535Z,36.03
2018-07-16T21:28:00.454Z,35.50
2018-07-16T21:30:41.359Z,49.80
2018-07-16T21:33:22.487Z,44.80
2018-07-16T21:36:03.613Z,28.67
2018-07-16T21:38:44.734Z,45.60
2018-07-16T21:41:25.652Z,38.57
2018-07-16T21:44:06.965Z,29.83
2018-07-16T21:46:48.254Z,26.43
2018-07-16T21:49:29.155Z,20.17
2018-07-16T21:52:10.020Z,19.00
2018-07-16T21:54:51.042Z,25.30
2018-07-16T21:57:31.983Z,31.23
2018-07-16T22:00:12.473Z,16.73
2018-07-16T22:02:53.709Z,13.10
2018-07-16T22:05:34.601Z,22.10
2018-07-16T22:08:15.706Z,23.47
2018-07-16T22:10:56.924Z,22.37
2018-07-16T22:13:38.426Z,26.63
2018-07-16T22:16:19.499Z,24.50
2018-07-16T22:19:00.412Z,23.30
2018-07-16T22:21:41.317Z,17.40
2018-07-16T22:24:22.158Z,13.33
2018-07-16T22:27:03.104Z,27.50
2018-07-16T22:29:44.639Z,34.23
2018-07-16T22:32:25.877Z,35.20
2018-07-16T22:35:06.904Z,32.83
2018-07-16T22:37:47.924Z,36.90
2018-07-16T22:40:29.075Z,26.93
2018-07-16T22:43:09.888Z,24.90
2018-07-16T22:45:50.607Z,46.00
2018-07-16T22:48:31.615Z,38.50
2018-07-16T22:51:12.551Z,28.07
2018-07-16T22:53:53.531Z,20.17
2018-07-16T22:56:34.686Z,34.93
2018-07-16T22:59:15.762Z,28.73
2018-07-16T23:01:57.024Z,28.03
2018-07-16T23:04:38.594Z,33.60
2018-07-16T23:07:19.965Z,33.47
2018-07-16T23:10:00.684Z,27.63
2018-07-16T23:12:41.348Z,34.20
2018-07-16T23:15:22.263Z,23.70
2018-07-16T23:18:03.363Z,23.27
2018-07-16T23:20:44.069Z,37.03
2018-07-16T23:23:24.944Z,33.47
2018-07-16T23:26:06.022Z,38.23
2018-07-16T23:28:47.477Z,37.30
2018-07-16T23:31:28.596Z,41.97
2018-07-16T23:34:09.350Z,32.37
2018-07-16T23:36:50.187Z,37.07
2018-07-16T23:39:31.206Z,24.23
2018-07-16T23:42:11.975Z,30.60
2018-07-16T23:44:53.117Z,38.70
2018-07-16T23:47:34.044Z,34.33
2018-07-16T23:50:15.301Z,34.60
2018-07-16T23:52:56.222Z,65.03
2018-07-16T23:55:37.138Z,38.13
2018-07-16T23:58:17.965Z,31.40
